sensor_id;sensor_type;location;lat;lon;timestamp;temperature;humidity
46217;DHT22;47258;59.424;13.482;2023-02-01T00:00:33;1.10;99.90
46217;DHT22;47258;59.424;13.482;2023-02-01T00:03:00;1.10;99.90
46217;DHT22;47258;59.424;13.482;2023-02-01T00:05:27;1.00;99.90
46217;DHT22;47258;59.424;13.482;2023-02-01T00:07:54;1.00;99.90
46217;DHT22;47258;59.424;13.482;2023-02-01T00:10:21;1.00;99.90
46217;DHT22;47258;59.424;13.482;2023-02-01T00:12:48;1.00;99.90
46217;DHT22;47258;59.424;13.482;2023-02-01T00:15:15;1.00;99.90
46217;DHT22;47258;59.424;13.482;2023-02-01T00:17:44;1.00;99.90
46217;DHT22;47258;59.424;13.482;2023-02-01T00:20:11;1.10;99.90
46217;DHT22;47258;59.424;13.482;2023-02-01T00:22:38;1.10;99.90
46217;DHT22;47258;59.424;13.482;2023-02-01T00:25:06;1.10;99.90
46217;DHT22;47258;59.424;13.482;2023-02-01T00:27:33;1.10;99.90
46217;DHT22;47258;59.424;13.482;2023-02-01T00:30:00;1.00;99.90
46217;DHT22;47258;59.424;13.482;2023-02-01T00:32:27;1.00;99.90
46217;DHT22;47258;59.424;13.482;2023-02-01T00:34:56;0.90;99.90
46217;DHT22;47258;59.424;13.482;2023-02-01T00:37:23;0.90;99.90
46217;DHT22;47258;59.424;13.482;2023-02-01T00:39:50;0.90;99.90
46217;DHT22;47258;59.424;13.482;2023-02-01T00:42:20;0.90;99.90
46217;DHT22;47258;59.424;13.482;2023-02-01T00:44:47;0.90;99.90
46217;DHT22;47258;59.424;13.482;2023-02-01T00:47:14;0.90;99.90
46217;DHT22;47258;59.424;13.482;2023-02-01T00:49:41;0.90;99.90
46217;DHT22;47258;59.424;13.482;2023-02-01T00:52:09;0.90;99.90
46217;DHT22;47258;59.424;13.482;2023-02-01T00:54:37;1.00;99.90
46217;DHT22;47258;59.424;13.482;2023-02-01T00:57:04;1.00;99.90
46217;DHT22;47258;59.424;13.482;2023-02-01T00:59:31;1.00;99.90
46217;DHT22;47258;59.424;13.482;2023-02-01T01:01:58;1.00;99.90
46217;DHT22;47258;59.424;13.482;2023-02-01T01:04:25;0.90;99.90
46217;DHT22;47258;59.424;13.482;2023-02-01T01:06:52;0.90;99.90
46217;DHT22;47258;59.424;13.482;2023-02-01T01:09:20;0.90;99.90
46217;DHT22;47258;59.424;13.482;2023-02-01T01:11:47;0.90;99.90
46217;DHT22;47258;59.424;13.482;2023-02-01T01:14:16;0.80;99.90
46217;DHT22;47258;59.424;13.482;2023-02-01T01:16:43;0.80;99.90
46217;DHT22;47258;59.424;13.482;2023-02-01T01:19:10;0.70;99.90
46217;DHT22;47258;59.424;13.482;2023-02-01T01:21:38;0.70;99.90
46217;DHT22;47258;59.424;13.482;2023-02-01T01:24:05;0.70;99.90
46217;DHT22;47258;59.424;13.482;2023-02-01T01:26:34;0.70;99.90
46217;DHT22;47258;59.424;13.482;2023-02-01T01:29:01;0.70;99.90
46217;DHT22;47258;59.424;13.482;2023-02-01T01:31:28;0.60;99.90
46217;DHT22;47258;59.424;13.482;2023-02-01T01:33:57;0.60;99.90
46217;DHT22;47258;59.424;13.482;2023-02-01T01:36:25;0.50;99.90
46217;DHT22;47258;59.424;13.482;2023-02-01T01:38:52;0.50;99.90
46217;DHT22;47258;59.424;13.482;2023-02-01T01:41:22;0.40;99.90
46217;DHT22;47258;59.424;13.482;2023-02-01T01:43:53;0.40;99.90
46217;DHT22;47258;59.424;13.482;2023-02-01T01:46:23;0.40;99.90
46217;DHT22;47258;59.424;13.482;2023-02-01T01:48:53;0.40;99.90
46217;DHT22;47258;59.424;13.482;2023-02-01T01:51:24;0.40;99.90
46217;DHT22;47258;59.424;13.482;2023-02-01T01:53:56;0.40;99.90
46217;DHT22;47258;59.424;13.482;2023-02-01T01:56:26;0.40;99.90
46217;DHT22;47258;59.424;13.482;2023-02-01T01:58:57;0.40;99.90
46217;DHT22;47258;59.424;13.482;2023-02-01T02:01:24;0.40;99.90
46217;DHT22;47258;59.424;13.482;2023-02-01T02:03:51;0.50;99.90
46217;DHT22;47258;59.424;13.482;2023-02-01T02:06:26;0.50;99.90
46217;DHT22;47258;59.424;13.482;2023-02-01T02:08:54;0.40;99.90
46217;DHT22;47258;59.424;13.482;2023-02-01T02:11:21;0.50;99.90
46217;DHT22;47258;59.424;13.482;2023-02-01T02:13:50;0.50;99.90
46217;DHT22;47258;59.424;13.482;2023-02-01T02:16:44;0.50;99.90
46217;DHT22;47258;59.424;13.482;2023-02-01T02:19:36;0.50;99.90
46217;DHT22;47258;59.424;13.482;2023-02-01T02:22:26;0.40;99.90
46217;DHT22;47258;59.424;13.482;2023-02-01T02:25:39;0.40;99.90
46217;DHT22;47258;59.424;13.482;2023-02-01T02:28:23;0.40;99.90
46217;DHT22;47258;59.424;13.482;2023-02-01T02:31:28;0.40;99.90
46217;DHT22;47258;59.424;13.482;2023-02-01T02:34:13;0.30;99.90
46217;DHT22;47258;59.424;13.482;2023-02-01T02:36:50;0.20;99.90
46217;DHT22;47258;59.424;13.482;2023-02-01T02:39:21;0.20;99.90
46217;DHT22;47258;59.424;13.482;2023-02-01T02:41:55;0.20;99.90
46217;DHT22;47258;59.424;13.482;2023-02-01T02:44:46;0.10;99.90
46217;DHT22;47258;59.424;13.482;2023-02-01T02:47:33;0.00;99.90
46217;DHT22;47258;59.424;13.482;2023-02-01T02:50:13;-0.10;99.90
46217;DHT22;47258;59.424;13.482;2023-02-01T02:53:03;-0.10;99.90
46217;DHT22;47258;59.424;13.482;2023-02-01T02:55:50;-0.10;99.90
46217;DHT22;47258;59.424;13.482;2023-02-01T02:58:18;-0.10;99.90
46217;DHT22;47258;59.424;13.482;2023-02-01T03:01:03;-0.10;99.90
46217;DHT22;47258;59.424;13.482;2023-02-01T03:03:48;-0.20;99.90
46217;DHT22;47258;59.424;13.482;2023-02-01T03:06:37;-0.30;99.90
46217;DHT22;47258;59.424;13.482;2023-02-01T03:09:11;-0.40;99.90
46217;DHT22;47258;59.424;13.482;2023-02-01T03:11:40;-0.40;99.90
46217;DHT22;47258;59.424;13.482;2023-02-01T03:14:33;-0.40;99.90
46217;DHT22;47258;59.424;13.482;2023-02-01T03:17:05;-0.40;99.90
46217;DHT22;47258;59.424;13.482;2023-02-01T03:19:38;-0.30;99.90
46217;DHT22;47258;59.424;13.482;2023-02-01T03:22:14;-0.20;99.90
46217;DHT22;47258;59.424;13.482;2023-02-01T03:24:43;-0.20;99.90
46217;DHT22;47258;59.424;13.482;2023-02-01T03:27:15;-0.20;99.90
46217;DHT22;47258;59.424;13.482;2023-02-01T03:29:48;-0.20;99.90
46217;DHT22;47258;59.424;13.482;2023-02-01T03:32:16;-0.20;99.90
46217;DHT22;47258;59.424;13.482;2023-02-01T03:34:44;-0.10;99.90
46217;DHT22;47258;59.424;13.482;2023-02-01T03:37:15;-0.10;99.90
46217;DHT22;47258;59.424;13.482;2023-02-01T03:39:47;-0.10;99.90
46217;DHT22;47258;59.424;13.482;2023-02-01T03:42:21;-0.10;99.90
46217;DHT22;47258;59.424;13.482;2023-02-01T03:44:54;-0.10;99.90
46217;DHT22;47258;59.424;13.482;2023-02-01T03:47:27;-0.10;99.90
46217;DHT22;47258;59.424;13.482;2023-02-01T03:50:00;-0.10;99.90
46217;DHT22;47258;59.424;13.482;2023-02-01T03:52:31;-0.10;99.90
46217;DHT22;47258;59.424;13.482;2023-02-01T03:55:00;0.00;99.90
46217;DHT22;47258;59.424;13.482;2023-02-01T03:57:32;0.00;99.90
46217;DHT22;47258;59.424;13.482;2023-02-01T04:00:05;0.00;99.90
46217;DHT22;47258;59.424;13.482;2023-02-01T04:02:33;0.10;99.90
46217;DHT22;47258;59.424;13.482;2023-02-01T04:05:00;0.10;99.90
46217;DHT22;47258;59.424;13.482;2023-02-01T04:07:29;0.00;99.90
46217;DHT22;47258;59.424;13.482;2023-02-01T04:09:57;0.00;99.90
46217;DHT22;47258;59.424;13.482;2023-02-01T04:12:24;0.00;99.90
46217;DHT22;47258;59.424;13.482;2023-02-01T04:14:51;0.00;99.90
46217;DHT22;47258;59.424;13.482;2023-02-01T04:17:18;0.00;99.90
46217;DHT22;47258;59.424;13.482;2023-02-01T04:19:45;0.00;99.90
46217;DHT22;47258;59.424;13.482;2023-02-01T04:22:12;0.10;99.90
46217;DHT22;47258;59.424;13.482;2023-02-01T04:24:41;0.10;99.90
46217;DHT22;47258;59.424;13.482;2023-02-01T04:27:08;0.10;99.90
46217;DHT22;47258;59.424;13.482;2023-02-01T04:29:35;0.10;99.90
46217;DHT22;47258;59.424;13.482;2023-02-01T04:32:02;0.20;99.90
46217;DHT22;47258;59.424;13.482;2023-02-01T04:34:29;0.20;99.90
46217;DHT22;47258;59.424;13.482;2023-02-01T04:36:56;0.10;99.90
46217;DHT22;47258;59.424;13.482;2023-02-01T04:39:23;0.10;99.90
46217;DHT22;47258;59.424;13.482;2023-02-01T04:41:52;0.20;99.90
46217;DHT22;47258;59.424;13.482;2023-02-01T04:44:19;0.10;99.90
46217;DHT22;47258;59.424;13.482;2023-02-01T04:46:47;0.20;99.90
46217;DHT22;47258;59.424;13.482;2023-02-01T04:49:14;0.20;99.90
46217;DHT22;47258;59.424;13.482;2023-02-01T04:51:42;0.20;99.90
46217;DHT22;47258;59.424;13.482;2023-02-01T04:54:09;0.30;99.90
46217;DHT22;47258;59.424;13.482;2023-02-01T04:56:38;0.30;99.90
46217;DHT22;47258;59.424;13.482;2023-02-01T04:59:06;0.30;99.90
46217;DHT22;47258;59.424;13.482;2023-02-01T05:01:33;0.30;99.90
46217;DHT22;47258;59.424;13.482;2023-02-01T05:04:00;0.40;99.90
46217;DHT22;47258;59.424;13.482;2023-02-01T05:06:27;0.40;99.90
46217;DHT22;47258;59.424;13.482;2023-02-01T05:08:54;0.40;99.90
46217;DHT22;47258;59.424;13.482;2023-02-01T05:11:22;0.40;99.90
46217;DHT22;47258;59.424;13.482;2023-02-01T05:14:07;0.40;99.90
46217;DHT22;47258;59.424;13.482;2023-02-01T05:16:35;0.40;99.90
46217;DHT22;47258;59.424;13.482;2023-02-01T05:19:02;0.40;99.90
46217;DHT22;47258;59.424;13.482;2023-02-01T05:21:29;0.40;99.90
46217;DHT22;47258;59.424;13.482;2023-02-01T05:23:56;0.40;99.90
46217;DHT22;47258;59.424;13.482;2023-02-01T05:26:42;0.40;99.90
46217;DHT22;47258;59.424;13.482;2023-02-01T05:29:11;0.30;99.90
46217;DHT22;47258;59.424;13.482;2023-02-01T05:31:38;0.30;99.90
46217;DHT22;47258;59.424;13.482;2023-02-01T05:34:06;0.30;99.90
46217;DHT22;47258;59.424;13.482;2023-02-01T05:36:33;0.30;99.90
46217;DHT22;47258;59.424;13.482;2023-02-01T05:39:00;0.30;99.90
46217;DHT22;47258;59.424;13.482;2023-02-01T05:41:27;0.30;99.90
46217;DHT22;47258;59.424;13.482;2023-02-01T05:43:54;0.30;99.90
46217;DHT22;47258;59.424;13.482;2023-02-01T05:46:22;0.30;99.90
46217;DHT22;47258;59.424;13.482;2023-02-01T05:48:50;0.30;99.90
46217;DHT22;47258;59.424;13.482;2023-02-01T05:51:17;0.30;99.90
46217;DHT22;47258;59.424;13.482;2023-02-01T05:53:44;0.30;99.90
46217;DHT22;47258;59.424;13.482;2023-02-01T05:56:11;0.30;99.90
46217;DHT22;47258;59.424;13.482;2023-02-01T05:58:38;0.40;99.90
46217;DHT22;47258;59.424;13.482;2023-02-01T06:01:05;0.30;99.90
46217;DHT22;47258;59.424;13.482;2023-02-01T06:03:33;0.40;99.90
46217;DHT22;47258;59.424;13.482;2023-02-01T06:06:01;0.40;99.90
46217;DHT22;47258;59.424;13.482;2023-02-01T06:08:28;0.40;99.90
46217;DHT22;47258;59.424;13.482;2023-02-01T06:10:58;0.40;99.90
46217;DHT22;47258;59.424;13.482;2023-02-01T06:13:26;0.40;99.90
46217;DHT22;47258;59.424;13.482;2023-02-01T06:15:53;0.40;99.90
46217;DHT22;47258;59.424;13.482;2023-02-01T06:18:21;0.30;99.90
46217;DHT22;47258;59.424;13.482;2023-02-01T06:20:53;0.30;99.90
46217;DHT22;47258;59.424;13.482;2023-02-01T06:23:20;0.40;99.90
46217;DHT22;47258;59.424;13.482;2023-02-01T06:25:50;0.40;99.90
46217;DHT22;47258;59.424;13.482;2023-02-01T06:28:17;0.40;99.90
46217;DHT22;47258;59.424;13.482;2023-02-01T06:30:44;0.40;99.90
46217;DHT22;47258;59.424;13.482;2023-02-01T06:33:13;0.40;99.90
46217;DHT22;47258;59.424;13.482;2023-02-01T06:35:41;0.40;99.90
46217;DHT22;47258;59.424;13.482;2023-02-01T06:38:11;0.40;99.90
46217;DHT22;47258;59.424;13.482;2023-02-01T06:40:38;0.50;99.90
46217;DHT22;47258;59.424;13.482;2023-02-01T06:43:06;0.40;99.90
46217;DHT22;47258;59.424;13.482;2023-02-01T06:45:33;0.40;99.90
46217;DHT22;47258;59.424;13.482;2023-02-01T06:48:00;0.40;99.90
46217;DHT22;47258;59.424;13.482;2023-02-01T06:50:28;0.40;99.90
46217;DHT22;47258;59.424;13.482;2023-02-01T06:52:55;0.30;99.90
46217;DHT22;47258;59.424;13.482;2023-02-01T06:55:24;0.30;99.90
46217;DHT22;47258;59.424;13.482;2023-02-01T06:57:53;0.20;99.90
46217;DHT22;47258;59.424;13.482;2023-02-01T07:00:21;0.20;99.90
46217;DHT22;47258;59.424;13.482;2023-02-01T07:02:49;0.20;99.90
46217;DHT22;47258;59.424;13.482;2023-02-01T07:05:16;0.20;99.90
46217;DHT22;47258;59.424;13.482;2023-02-01T07:07:43;0.20;99.90
46217;DHT22;47258;59.424;13.482;2023-02-01T07:10:11;0.20;99.90
46217;DHT22;47258;59.424;13.482;2023-02-01T07:12:39;0.20;99.90
46217;DHT22;47258;59.424;13.482;2023-02-01T07:15:07;0.20;99.90
46217;DHT22;47258;59.424;13.482;2023-02-01T07:17:34;0.20;99.90
46217;DHT22;47258;59.424;13.482;2023-02-01T07:20:01;0.20;99.90
46217;DHT22;47258;59.424;13.482;2023-02-01T07:22:28;0.20;99.90
46217;DHT22;47258;59.424;13.482;2023-02-01T07:24:55;0.20;99.90
46217;DHT22;47258;59.424;13.482;2023-02-01T07:27:23;0.20;99.90
46217;DHT22;47258;59.424;13.482;2023-02-01T07:29:52;0.20;99.90
46217;DHT22;47258;59.424;13.482;2023-02-01T07:32:21;0.20;99.90
46217;DHT22;47258;59.424;13.482;2023-02-01T07:34:48;0.20;99.90
46217;DHT22;47258;59.424;13.482;2023-02-01T07:37:15;0.20;99.90
46217;DHT22;47258;59.424;13.482;2023-02-01T07:39:42;0.20;99.90
46217;DHT22;47258;59.424;13.482;2023-02-01T07:42:09;0.20;99.90
46217;DHT22;47258;59.424;13.482;2023-02-01T07:44:36;0.20;99.90
46217;DHT22;47258;59.424;13.482;2023-02-01T07:47:05;0.30;99.90
46217;DHT22;47258;59.424;13.482;2023-02-01T07:49:32;0.30;99.90
46217;DHT22;47258;59.424;13.482;2023-02-01T07:51:59;0.30;99.90
46217;DHT22;47258;59.424;13.482;2023-02-01T07:54:26;0.30;99.90
46217;DHT22;47258;59.424;13.482;2023-02-01T07:56:53;0.40;99.90
46217;DHT22;47258;59.424;13.482;2023-02-01T07:59:20;0.40;99.90
46217;DHT22;47258;59.424;13.482;2023-02-01T08:01:47;0.40;99.90
46217;DHT22;47258;59.424;13.482;2023-02-01T08:04:15;0.40;99.90
46217;DHT22;47258;59.424;13.482;2023-02-01T08:06:42;0.50;99.90
46217;DHT22;47258;59.424;13.482;2023-02-01T08:09:09;0.50;99.90
46217;DHT22;47258;59.424;13.482;2023-02-01T08:11:36;0.50;99.90
46217;DHT22;47258;59.424;13.482;2023-02-01T08:14:04;0.60;99.90
46217;DHT22;47258;59.424;13.482;2023-02-01T08:16:32;0.60;99.90
46217;DHT22;47258;59.424;13.482;2023-02-01T08:19:01;0.60;99.90
46217;DHT22;47258;59.424;13.482;2023-02-01T08:21:30;0.50;99.90
46217;DHT22;47258;59.424;13.482;2023-02-01T08:24:03;0.50;99.90
46217;DHT22;47258;59.424;13.482;2023-02-01T08:26:30;0.50;99.90
46217;DHT22;47258;59.424;13.482;2023-02-01T08:28:59;0.50;99.90
46217;DHT22;47258;59.424;13.482;2023-02-01T08:31:27;0.50;99.90
46217;DHT22;47258;59.424;13.482;2023-02-01T08:33:56;0.50;99.90
46217;DHT22;47258;59.424;13.482;2023-02-01T08:36:25;0.50;99.90
46217;DHT22;47258;59.424;13.482;2023-02-01T08:38:54;0.50;99.90
46217;DHT22;47258;59.424;13.482;2023-02-01T08:41:23;0.50;99.90
46217;DHT22;47258;59.424;13.482;2023-02-01T08:43:51;0.60;99.90
46217;DHT22;47258;59.424;13.482;2023-02-01T08:46:19;0.60;99.90
46217;DHT22;47258;59.424;13.482;2023-02-01T08:48:47;0.60;99.90
46217;DHT22;47258;59.424;13.482;2023-02-01T08:51:16;0.60;99.90
46217;DHT22;47258;59.424;13.482;2023-02-01T08:53:43;0.60;99.90
46217;DHT22;47258;59.424;13.482;2023-02-01T08:56:13;0.60;99.90
46217;DHT22;47258;59.424;13.482;2023-02-01T08:58:42;0.60;99.90
46217;DHT22;47258;59.424;13.482;2023-02-01T09:01:11;0.60;99.90
46217;DHT22;47258;59.424;13.482;2023-02-01T09:03:38;0.60;99.90
46217;DHT22;47258;59.424;13.482;2023-02-01T09:06:08;0.60;99.90
46217;DHT22;47258;59.424;13.482;2023-02-01T09:08:36;0.60;99.90
46217;DHT22;47258;59.424;13.482;2023-02-01T09:11:04;0.70;99.90
46217;DHT22;47258;59.424;13.482;2023-02-01T09:13:33;0.70;99.90
46217;DHT22;47258;59.424;13.482;2023-02-01T09:16:01;0.70;99.90
46217;DHT22;47258;59.424;13.482;2023-02-01T09:18:28;0.70;99.90
46217;DHT22;47258;59.424;13.482;2023-02-01T09:20:55;0.70;99.90
46217;DHT22;47258;59.424;13.482;2023-02-01T09:23:22;0.70;99.90
46217;DHT22;47258;59.424;13.482;2023-02-01T09:25:49;0.70;99.90
46217;DHT22;47258;59.424;13.482;2023-02-01T09:28:17;0.70;99.90
46217;DHT22;47258;59.424;13.482;2023-02-01T09:30:45;0.80;99.90
46217;DHT22;47258;59.424;13.482;2023-02-01T09:33:12;0.80;99.90
46217;DHT22;47258;59.424;13.482;2023-02-01T09:35:40;0.80;99.90
46217;DHT22;47258;59.424;13.482;2023-02-01T09:38:07;0.90;99.90
46217;DHT22;47258;59.424;13.482;2023-02-01T09:40:34;0.90;99.90
46217;DHT22;47258;59.424;13.482;2023-02-01T09:43:19;0.90;99.90
46217;DHT22;47258;59.424;13.482;2023-02-01T09:46:02;1.00;99.90
46217;DHT22;47258;59.424;13.482;2023-02-01T09:48:36;1.00;99.90
46217;DHT22;47258;59.424;13.482;2023-02-01T09:51:10;1.00;99.90
46217;DHT22;47258;59.424;13.482;2023-02-01T09:53:42;1.10;99.90
46217;DHT22;47258;59.424;13.482;2023-02-01T09:56:13;1.00;99.90
46217;DHT22;47258;59.424;13.482;2023-02-01T09:58:43;1.00;99.90
46217;DHT22;47258;59.424;13.482;2023-02-01T10:01:18;1.10;99.90
46217;DHT22;47258;59.424;13.482;2023-02-01T10:03:46;1.10;99.90
46217;DHT22;47258;59.424;13.482;2023-02-01T10:06:37;1.20;99.90
46217;DHT22;47258;59.424;13.482;2023-02-01T10:09:24;1.20;99.90
46217;DHT22;47258;59.424;13.482;2023-02-01T10:12:24;1.30;99.90
46217;DHT22;47258;59.424;13.482;2023-02-01T10:14:59;1.30;99.90
46217;DHT22;47258;59.424;13.482;2023-02-01T10:17:43;1.30;99.90
46217;DHT22;47258;59.424;13.482;2023-02-01T10:20:21;1.30;99.90
46217;DHT22;47258;59.424;13.482;2023-02-01T10:22:58;1.40;99.90
46217;DHT22;47258;59.424;13.482;2023-02-01T10:25:28;1.40;99.90
46217;DHT22;47258;59.424;13.482;2023-02-01T10:28:00;1.40;99.90
46217;DHT22;47258;59.424;13.482;2023-02-01T10:30:31;1.40;99.90
46217;DHT22;47258;59.424;13.482;2023-02-01T10:33:14;1.40;99.90
46217;DHT22;47258;59.424;13.482;2023-02-01T10:35:44;1.40;99.90
46217;DHT22;47258;59.424;13.482;2023-02-01T10:38:17;1.40;99.90
46217;DHT22;47258;59.424;13.482;2023-02-01T10:40:45;1.40;99.90
46217;DHT22;47258;59.424;13.482;2023-02-01T10:43:13;1.40;99.90
46217;DHT22;47258;59.424;13.482;2023-02-01T10:45:40;1.40;99.90
46217;DHT22;47258;59.424;13.482;2023-02-01T10:48:10;1.40;99.90
46217;DHT22;47258;59.424;13.482;2023-02-01T10:50:40;1.40;99.90
46217;DHT22;47258;59.424;13.482;2023-02-01T10:53:13;1.40;99.90
46217;DHT22;47258;59.424;13.482;2023-02-01T10:55:47;1.50;99.90
46217;DHT22;47258;59.424;13.482;2023-02-01T10:58:17;1.50;99.90
46217;DHT22;47258;59.424;13.482;2023-02-01T11:00:53;1.50;99.90
46217;DHT22;47258;59.424;13.482;2023-02-01T11:03:42;1.60;99.90
46217;DHT22;47258;59.424;13.482;2023-02-01T11:06:17;1.60;99.90
46217;DHT22;47258;59.424;13.482;2023-02-01T11:08:49;1.60;99.90
46217;DHT22;47258;59.424;13.482;2023-02-01T11:11:17;1.70;99.90
46217;DHT22;47258;59.424;13.482;2023-02-01T11:13:44;1.60;99.90
46217;DHT22;47258;59.424;13.482;2023-02-01T11:16:18;1.60;99.90
46217;DHT22;47258;59.424;13.482;2023-02-01T11:18:53;1.50;99.90
46217;DHT22;47258;59.424;13.482;2023-02-01T11:21:21;1.50;99.90
46217;DHT22;47258;59.424;13.482;2023-02-01T11:23:48;1.50;99.90
46217;DHT22;47258;59.424;13.482;2023-02-01T11:26:21;1.40;99.90
46217;DHT22;47258;59.424;13.482;2023-02-01T11:28:56;1.40;99.90
46217;DHT22;47258;59.424;13.482;2023-02-01T11:31:25;1.40;99.90
46217;DHT22;47258;59.424;13.482;2023-02-01T11:33:57;1.50;99.90
46217;DHT22;47258;59.424;13.482;2023-02-01T11:36:28;1.60;99.90
46217;DHT22;47258;59.424;13.482;2023-02-01T11:39:09;1.70;99.90
46217;DHT22;47258;59.424;13.482;2023-02-01T11:41:42;1.70;99.90
46217;DHT22;47258;59.424;13.482;2023-02-01T11:44:20;1.70;99.90
46217;DHT22;47258;59.424;13.482;2023-02-01T11:46:48;1.60;99.90
46217;DHT22;47258;59.424;13.482;2023-02-01T11:49:22;1.60;99.90
46217;DHT22;47258;59.424;13.482;2023-02-01T11:52:10;1.60;99.90
46217;DHT22;47258;59.424;13.482;2023-02-01T11:54:52;1.60;99.90
46217;DHT22;47258;59.424;13.482;2023-02-01T11:57:41;1.60;99.90
46217;DHT22;47258;59.424;13.482;2023-02-01T12:00:25;1.50;99.90
46217;DHT22;47258;59.424;13.482;2023-02-01T12:03:17;1.60;99.90
46217;DHT22;47258;59.424;13.482;2023-02-01T12:05:57;1.60;99.90
46217;DHT22;47258;59.424;13.482;2023-02-01T12:08:37;1.60;99.90
46217;DHT22;47258;59.424;13.482;2023-02-01T12:11:29;1.60;99.90
46217;DHT22;47258;59.424;13.482;2023-02-01T12:14:05;1.50;99.90
46217;DHT22;47258;59.424;13.482;2023-02-01T12:16:43;1.60;99.90
46217;DHT22;47258;59.424;13.482;2023-02-01T12:19:27;1.60;99.90
46217;DHT22;47258;59.424;13.482;2023-02-01T12:22:04;1.60;99.90
46217;DHT22;47258;59.424;13.482;2023-02-01T12:24:54;1.60;99.90
46217;DHT22;47258;59.424;13.482;2023-02-01T12:28:02;1.70;99.90
46217;DHT22;47258;59.424;13.482;2023-02-01T12:30:51;1.70;99.90
46217;DHT22;47258;59.424;13.482;2023-02-01T12:33:30;1.70;99.90
46217;DHT22;47258;59.424;13.482;2023-02-01T12:36:12;1.70;99.90
46217;DHT22;47258;59.424;13.482;2023-02-01T12:38:50;1.70;99.90
46217;DHT22;47258;59.424;13.482;2023-02-01T12:41:27;1.70;99.90
46217;DHT22;47258;59.424;13.482;2023-02-01T12:44:00;1.70;99.90
46217;DHT22;47258;59.424;13.482;2023-02-01T12:46:35;1.60;99.90
46217;DHT22;47258;59.424;13.482;2023-02-01T12:49:08;1.60;99.90
46217;DHT22;47258;59.424;13.482;2023-02-01T12:51:39;1.60;99.90
46217;DHT22;47258;59.424;13.482;2023-02-01T12:54:15;1.60;99.90
46217;DHT22;47258;59.424;13.482;2023-02-01T12:56:47;1.60;99.90
46217;DHT22;47258;59.424;13.482;2023-02-01T12:59:20;1.60;99.90
46217;DHT22;47258;59.424;13.482;2023-02-01T13:01:53;1.70;99.90
46217;DHT22;47258;59.424;13.482;2023-02-01T13:04:28;1.70;99.90
46217;DHT22;47258;59.424;13.482;2023-02-01T13:07:03;1.80;99.90
46217;DHT22;47258;59.424;13.482;2023-02-01T13:09:39;1.80;99.90
46217;DHT22;47258;59.424;13.482;2023-02-01T13:12:12;1.80;99.90
46217;DHT22;47258;59.424;13.482;2023-02-01T13:14:44;1.70;99.90
46217;DHT22;47258;59.424;13.482;2023-02-01T13:17:15;1.70;99.90
46217;DHT22;47258;59.424;13.482;2023-02-01T13:19:46;1.70;99.90
46217;DHT22;47258;59.424;13.482;2023-02-01T13:22:19;1.60;99.90
46217;DHT22;47258;59.424;13.482;2023-02-01T13:24:52;1.60;99.90
46217;DHT22;47258;59.424;13.482;2023-02-01T13:27:20;1.60;99.90
46217;DHT22;47258;59.424;13.482;2023-02-01T13:29:52;1.60;99.90
46217;DHT22;47258;59.424;13.482;2023-02-01T13:32:44;1.60;99.90
46217;DHT22;47258;59.424;13.482;2023-02-01T13:38:42;1.50;99.90
46217;DHT22;47258;59.424;13.482;2023-02-01T13:41:24;1.40;99.90
46217;DHT22;47258;59.424;13.482;2023-02-01T13:43:57;1.40;99.90
46217;DHT22;47258;59.424;13.482;2023-02-01T13:46:26;1.20;99.90
46217;DHT22;47258;59.424;13.482;2023-02-01T13:48:56;1.20;99.90
46217;DHT22;47258;59.424;13.482;2023-02-01T13:51:35;1.10;99.90
46217;DHT22;47258;59.424;13.482;2023-02-01T13:54:04;1.10;99.90
46217;DHT22;47258;59.424;13.482;2023-02-01T13:56:41;1.10;99.90
46217;DHT22;47258;59.424;13.482;2023-02-01T13:59:47;1.10;99.90
46217;DHT22;47258;59.424;13.482;2023-02-01T14:02:46;1.00;99.90
46217;DHT22;47258;59.424;13.482;2023-02-01T14:08:36;0.90;99.90
46217;DHT22;47258;59.424;13.482;2023-02-01T14:11:04;0.80;99.90
46217;DHT22;47258;59.424;13.482;2023-02-01T14:13:33;0.80;99.90
46217;DHT22;47258;59.424;13.482;2023-02-01T14:16:15;0.80;99.90
46217;DHT22;47258;59.424;13.482;2023-02-01T14:18:59;0.70;99.90
46217;DHT22;47258;59.424;13.482;2023-02-01T14:21:29;0.70;99.90
46217;DHT22;47258;59.424;13.482;2023-02-01T14:23:59;0.70;99.90
46217;DHT22;47258;59.424;13.482;2023-02-01T14:26:42;0.70;99.90
46217;DHT22;47258;59.424;13.482;2023-02-01T14:29:29;0.70;99.90
46217;DHT22;47258;59.424;13.482;2023-02-01T14:32:02;0.80;99.90
46217;DHT22;47258;59.424;13.482;2023-02-01T14:34:36;0.70;99.90
46217;DHT22;47258;59.424;13.482;2023-02-01T14:37:11;0.70;99.90
46217;DHT22;47258;59.424;13.482;2023-02-01T14:39:50;0.70;99.90
46217;DHT22;47258;59.424;13.482;2023-02-01T14:42:23;0.60;99.90
46217;DHT22;47258;59.424;13.482;2023-02-01T14:44:53;0.60;99.90
46217;DHT22;47258;59.424;13.482;2023-02-01T14:47:32;0.50;99.90
46217;DHT22;47258;59.424;13.482;2023-02-01T14:50:33;0.50;99.90
46217;DHT22;47258;59.424;13.482;2023-02-01T14:55:59;0.40;99.90
46217;DHT22;47258;59.424;13.482;2023-02-01T14:58:36;0.30;99.90
46217;DHT22;47258;59.424;13.482;2023-02-01T15:01:17;0.30;99.90
46217;DHT22;47258;59.424;13.482;2023-02-01T15:03:52;0.30;99.90
46217;DHT22;47258;59.424;13.482;2023-02-01T15:06:30;0.30;99.90
46217;DHT22;47258;59.424;13.482;2023-02-01T15:09:00;0.20;99.90
46217;DHT22;47258;59.424;13.482;2023-02-01T15:11:29;0.20;99.90
46217;DHT22;47258;59.424;13.482;2023-02-01T15:13:56;0.10;99.90
46217;DHT22;47258;59.424;13.482;2023-02-01T15:16:26;0.10;99.90
46217;DHT22;47258;59.424;13.482;2023-02-01T15:19:10;0.00;99.90
46217;DHT22;47258;59.424;13.482;2023-02-01T15:21:46;0.00;99.90
46217;DHT22;47258;59.424;13.482;2023-02-01T15:24:14;0.00;99.90
46217;DHT22;47258;59.424;13.482;2023-02-01T15:26:41;0.00;99.90
46217;DHT22;47258;59.424;13.482;2023-02-01T15:29:12;0.00;99.90
46217;DHT22;47258;59.424;13.482;2023-02-01T15:31:44;0.00;99.90
46217;DHT22;47258;59.424;13.482;2023-02-01T15:34:12;0.00;99.90
46217;DHT22;47258;59.424;13.482;2023-02-01T15:36:40;0.00;99.90
46217;DHT22;47258;59.424;13.482;2023-02-01T15:39:20;-0.10;99.90
46217;DHT22;47258;59.424;13.482;2023-02-01T15:41:54;-0.10;99.90
46217;DHT22;47258;59.424;13.482;2023-02-01T15:44:31;-0.10;99.90
46217;DHT22;47258;59.424;13.482;2023-02-01T15:47:06;-0.10;99.90
46217;DHT22;47258;59.424;13.482;2023-02-01T15:49:37;-0.10;99.90
46217;DHT22;47258;59.424;13.482;2023-02-01T15:52:21;-0.10;99.90
46217;DHT22;47258;59.424;13.482;2023-02-01T15:54:51;-0.10;99.90
46217;DHT22;47258;59.424;13.482;2023-02-01T15:57:21;-0.10;99.90
46217;DHT22;47258;59.424;13.482;2023-02-01T15:59:56;-0.10;99.90
46217;DHT22;47258;59.424;13.482;2023-02-01T16:02:34;-0.20;99.90
46217;DHT22;47258;59.424;13.482;2023-02-01T16:05:04;-0.20;99.90
46217;DHT22;47258;59.424;13.482;2023-02-01T16:07:33;-0.20;99.90
46217;DHT22;47258;59.424;13.482;2023-02-01T16:10:02;-0.30;99.90